Time;durP1;ratioP1;P1;durP2;ratioP2;P2;SDS_P1;SDS_P2;PMS_P1;PMS_P2;Temp;Humidity;BMP_temperature;BMP_pressure;BME280_temperature;BME280_humidity;BME280_pressure;Samples;Min_cycle;Max_cycle;Signal;HPM_P1;HPM_P2
2020/12/19 00:00:00;;;;;;;300.18;167.32;;;;;;;3.54;76.34;95546.45;1825220;78;21452;-51
2020/12/19 00:02:32;;;;;;;296.10;160.18;;;;;;;3.51;76.30;95540.42;1812362;79;21497;-50
2020/12/19 00:05:02;;;;;;;278.88;155.18;;;;;;;3.52;76.22;95550.14;1825253;78;21187;-50
2020/12/19 00:07:30;;;;;;;277.73;155.63;;;;;;;3.54;76.21;95545.86;1812308;78;21162;-49
2020/12/19 00:10:00;;;;;;;289.12;156.70;;;;;;;3.59;76.10;95551.52;1825243;78;21052;-49
2020/12/19 00:12:30;;;;;;;320.85;172.68;;;;;;;3.59;76.05;95544.16;1825258;78;21392;-51
2020/12/19 00:14:59;;;;;;;298.62;166.45;;;;;;;3.62;75.98;95544.73;1812200;78;21128;-49
2020/12/19 00:17:28;;;;;;;294.67;163.97;;;;;;;3.62;75.75;95547.46;1825245;78;21070;-49
2020/12/19 00:19:57;;;;;;;290.43;156.30;;;;;;;3.60;75.97;95544.91;1825432;78;21464;-49
2020/12/19 00:22:25;;;;;;;278.42;149.38;;;;;;;3.64;75.98;95545.70;1825436;78;21056;-49
2020/12/19 00:24:53;;;;;;;271.57;151.60;;;;;;;3.69;75.78;95542.63;1812469;79;21511;-49
2020/12/19 00:27:22;;;;;;;268.88;153.78;;;;;;;3.73;75.60;95544.18;1825321;78;21190;-50
2020/12/19 00:29:50;;;;;;;246.82;143.30;;;;;;;3.75;75.56;95540.52;1825402;78;21146;-48
2020/12/19 00:32:20;;;;;;;229.15;131.22;;;;;;;3.74;75.22;95545.77;1812540;79;21092;-50
2020/12/19 00:34:50;;;;;;;259.43;146.70;;;;;;;3.60;75.23;95542.98;1824309;78;21134;-50
2020/12/19 00:37:20;;;;;;;275.57;149.23;;;;;;;3.46;75.58;95544.09;1825510;78;21492;-50
2020/12/19 00:39:48;;;;;;;259.35;143.75;;;;;;;3.41;75.79;95540.38;1825247;78;21087;-53
2020/12/19 00:42:17;;;;;;;249.18;142.20;;;;;;;3.40;75.74;95542.31;1825396;78;21074;-49
2020/12/19 00:44:46;;;;;;;249.40;141.40;;;;;;;3.40;75.91;95537.47;1825488;78;21527;-49
2020/12/19 00:47:14;;;;;;;205.22;118.95;;;;;;;3.36;75.92;95542.08;1825396;78;21123;-49
2020/12/19 00:49:43;;;;;;;235.78;139.30;;;;;;;3.27;76.06;95536.99;1825420;78;21524;-48
2020/12/19 00:52:11;;;;;;;256.35;144.80;;;;;;;3.12;76.29;95534.03;1825279;78;21182;-49
2020/12/19 00:54:41;;;;;;;253.83;143.10;;;;;;;3.03;76.64;95530.86;1825369;78;21163;-50
2020/12/19 00:57:09;;;;;;;251.95;144.65;;;;;;;3.03;76.94;95528.14;1825521;78;21551;-50
2020/12/19 00:59:37;;;;;;;232.45;136.35;;;;;;;3.13;77.08;95530.72;1812453;79;21059;-49
2020/12/19 01:02:06;;;;;;;252.35;143.47;;;;;;;3.21;77.01;95535.80;1825478;78;21492;-50
2020/12/19 01:04:34;;;;;;;233.60;139.32;;;;;;;3.24;76.83;95530.97;1825309;78;21122;-49
2020/12/19 01:07:03;;;;;;;235.90;135.88;;;;;;;3.24;77.14;95530.20;1825377;78;21234;-49
2020/12/19 01:09:32;;;;;;;206.30;121.87;;;;;;;3.31;77.10;95530.22;1825340;78;22120;-50
2020/12/19 01:12:00;;;;;;;232.45;133.05;;;;;;;3.35;76.85;95525.58;1825443;78;21166;-50
2020/12/19 01:14:29;;;;;;;212.45;127.53;;;;;;;3.32;76.89;95520.34;1825497;78;21483;-50
2020/12/19 01:16:57;;;;;;;219.87;127.67;;;;;;;3.40;76.86;95528.71;1825358;78;21082;-51
2020/12/19 01:19:25;;;;;;;229.60;132.35;;;;;;;3.45;76.77;95526.21;1812464;78;21043;-51
2020/12/19 01:21:53;;;;;;;224.77;132.63;;;;;;;3.47;76.55;95519.80;1825468;78;21127;-51
2020/12/19 01:24:22;;;;;;;213.72;126.62;;;;;;;3.44;76.65;95517.27;1825366;78;21107;-48
2020/12/19 01:26:50;;;;;;;215.92;127.95;;;;;;;3.46;76.67;95515.53;1825478;78;23595;-50
2020/12/19 01:29:21;;;;;;;226.12;131.57;;;;;;;3.44;76.43;95518.62;1825350;78;21084;-54
2020/12/19 01:31:49;;;;;;;229.53;127.75;;;;;;;3.39;76.42;95516.88;1825354;78;21063;-50
2020/12/19 01:34:18;;;;;;;215.35;124.67;;;;;;;3.38;76.42;95513.95;1824509;78;21238;-50
2020/12/19 01:36:47;;;;;;;223.20;128.75;;;;;;;3.40;76.84;95521.15;1820518;78;21059;-51
2020/12/19 01:39:15;;;;;;;231.85;133.20;;;;;;;3.47;76.93;95525.25;1820609;78;22295;-50
2020/12/19 01:41:44;;;;;;;194.75;112.40;;;;;;;3.55;76.71;95527.02;1820344;78;21111;-49
2020/12/19 01:44:13;;;;;;;205.55;118.33;;;;;;;3.59;76.33;95523.75;1820391;78;21143;-49
2020/12/19 01:47:00;;;;;;;240.00;133.65;;;;;;;3.49;76.09;95523.11;1820420;78;21075;-49
2020/12/19 01:49:30;;;;;;;228.85;135.22;;;;;;;3.35;76.15;95511.98;1820472;78;21063;-50
2020/12/19 01:52:01;;;;;;;267.43;153.87;;;;;;;3.22;76.35;95518.33;1796354;79;22084;-51
2020/12/19 01:54:30;;;;;;;247.10;148.60;;;;;;;3.18;76.70;95524.91;1810913;79;21072;-50
2020/12/19 01:56:59;;;;;;;259.83;147.22;;;;;;;3.15;76.79;95529.75;1796318;79;21180;-50
2020/12/19 01:59:28;;;;;;;277.50;154.40;;;;;;;3.12;76.93;95525.88;1811060;79;21473;-51
2020/12/19 02:02:06;;;;;;;302.82;160.88;;;;;;;3.07;77.05;95522.73;1796300;79;21066;-50
2020/12/19 02:04:34;;;;;;;295.77;160.00;;;;;;;3.00;77.16;95519.95;1787659;79;22157;-49
2020/12/19 02:07:05;;;;;;;285.55;159.10;;;;;;;2.94;77.36;95526.91;1796146;79;21114;-49
2020/12/19 02:09:38;;;;;;;294.62;161.92;;;;;;;2.89;77.49;95528.05;1810941;79;21111;-50
2020/12/19 02:12:06;;;;;;;313.20;174.80;;;;;;;2.85;77.82;95527.84;1796243;79;21062;-49
2020/12/19 02:14:35;;;;;;;316.68;173.28;;;;;;;2.82;77.97;95523.14;1810910;79;21135;-50
2020/12/19 02:17:07;;;;;;;303.32;168.72;;;;;;;2.82;78.18;95525.30;1796314;79;21537;-49
2020/12/19 02:19:36;;;;;;;294.07;160.57;;;;;;;2.86;78.36;95528.05;1810935;79;21492;-51
2020/12/19 02:22:06;;;;;;;296.43;162.50;;;;;;;2.90;78.27;95532.91;1796312;79;21523;-49
2020/12/19 02:24:34;;;;;;;292.07;161.57;;;;;;;2.91;78.23;95533.11;1810947;79;21131;-49
2020/12/19 02:27:03;;;;;;;305.35;170.50;;;;;;;2.93;78.13;95536.23;1796240;79;21134;-49
2020/12/19 02:29:32;;;;;;;285.57;163.82;;;;;;;2.87;78.16;95532.31;1810926;79;21378;-49
2020/12/19 02:32:01;;;;;;;305.07;163.85;;;;;;;2.84;78.31;95533.08;1796139;78;21074;-48
2020/12/19 02:34:30;;;;;;;252.30;139.05;;;;;;;2.83;78.44;95532.88;1810735;79;21544;-49
2020/12/19 02:36:59;;;;;;;316.85;167.00;;;;;;;2.80;78.44;95530.33;1796240;79;21038;-49
2020/12/19 02:39:28;;;;;;;305.98;168.02;;;;;;;2.77;78.49;95528.94;1810925;79;21068;-49
2020/12/19 02:41:57;;;;;;;318.95;170.80;;;;;;;2.79;78.66;95526.06;1796149;79;21206;-51
2020/12/19 02:44:25;;;;;;;329.02;174.47;;;;;;;2.81;78.65;95522.38;1810859;79;21104;-50
2020/12/19 02:46:54;;;;;;;312.60;176.78;;;;;;;2.87;78.75;95525.52;1796147;79;21150;-50
2020/12/19 02:49:24;;;;;;;305.67;166.47;;;;;;;2.92;78.81;95527.31;1810909;79;21139;-49
2020/12/19 02:51:52;;;;;;;326.98;172.98;;;;;;;2.95;78.65;95523.04;1796303;79;21102;-50
2020/12/19 02:54:21;;;;;;;313.02;166.15;;;;;;;2.94;78.53;95529.63;1810874;79;21147;-48
2020/12/19 02:56:49;;;;;;;301.30;165.92;;;;;;;2.91;78.42;95531.75;1796134;79;21058;-50
2020/12/19 02:59:18;;;;;;;293.30;159.55;;;;;;;2.88;78.49;95521.66;1810839;79;21052;-50
2020/12/19 03:01:46;;;;;;;315.95;178.15;;;;;;;2.83;78.55;95526.09;1796195;79;21483;-49
2020/12/19 03:04:15;;;;;;;324.75;173.72;;;;;;;2.78;78.75;95526.42;1810927;79;21184;-49
2020/12/19 03:06:44;;;;;;;273.60;150.87;;;;;;;2.78;78.93;95529.14;1796167;79;21212;-49
2020/12/19 03:09:12;;;;;;;308.80;165.92;;;;;;;2.82;78.87;95528.02;1810825;79;21159;-50
2020/12/19 03:11:42;;;;;;;341.08;174.30;;;;;;;2.79;78.83;95527.41;1796094;78;21145;-50
2020/12/19 03:14:10;;;;;;;324.27;171.82;;;;;;;2.80;78.93;95532.25;1810838;79;21656;-50
2020/12/19 03:16:39;;;;;;;343.85;182.20;;;;;;;2.82;78.94;95533.45;1796213;79;21052;-50
2020/12/19 03:19:07;;;;;;;323.85;174.45;;;;;;;2.81;79.04;95529.17;1810902;79;21317;-51
2020/12/19 03:21:35;;;;;;;335.77;179.12;;;;;;;2.81;78.99;95535.17;1796212;79;21066;-49
2020/12/19 03:24:05;;;;;;;323.35;175.82;;;;;;;2.77;78.99;95537.09;1810878;79;21139;-50
2020/12/19 03:26:33;;;;;;;301.52;163.32;;;;;;;2.76;79.12;95535.53;1796179;79;21144;-49
2020/12/19 03:29:01;;;;;;;305.10;168.60;;;;;;;2.80;79.15;95537.69;1810877;79;21152;-50
2020/12/19 03:31:30;;;;;;;296.37;166.65;;;;;;;2.84;79.29;95537.16;1796174;79;21362;-50
2020/12/19 03:33:59;;;;;;;312.15;170.50;;;;;;;2.89;79.25;95534.84;1810781;79;21092;-49
2020/12/19 03:36:30;;;;;;;308.13;171.93;;;;;;;2.93;79.09;95530.80;1803666;79;21099;-50
2020/12/19 03:38:58;;;;;;;311.48;172.28;;;;;;;2.98;79.03;95529.86;1822104;78;21468;-50
2020/12/19 03:41:27;;;;;;;326.70;171.20;;;;;;;3.00;78.93;95528.90;1822059;78;21052;-49
2020/12/19 03:43:56;;;;;;;291.12;158.47;;;;;;;3.05;78.80;95526.41;1822081;78;21195;-51
2020/12/19 03:46:25;;;;;;;300.52;166.40;;;;;;;3.13;78.57;95532.08;1822014;78;21147;-50
2020/12/19 03:48:53;;;;;;;337.32;182.47;;;;;;;3.13;78.28;95537.51;1822064;78;21091;-50
2020/12/19 03:51:21;;;;;;;333.63;181.00;;;;;;;3.10;78.24;95529.55;1809503;79;21631;-49
2020/12/19 03:53:50;;;;;;;341.57;179.05;;;;;;;3.10;78.43;95534.20;1822092;78;21056;-50
2020/12/19 03:56:18;;;;;;;296.63;158.93;;;;;;;3.16;78.40;95534.02;1822288;78;21351;-49
2020/12/19 03:58:46;;;;;;;327.02;171.70;;;;;;;3.16;78.02;95527.23;1822172;78;21080;-48
2020/12/19 04:01:16;;;;;;;325.75;177.93;;;;;;;3.09;77.84;95534.00;1822242;78;21047;-50
2020/12/19 04:03:44;;;;;;;324.20;175.12;;;;;;;3.03;78.04;95530.09;1809683;79;21556;-49
2020/12/19 04:06:13;;;;;;;320.07;176.35;;;;;;;3.04;78.21;95523.49;1822203;78;21516;-50
2020/12/19 04:08:41;;;;;;;326.35;179.65;;;;;;;3.00;78.13;95515.88;1822248;78;21603;-49
2020/12/19 04:11:09;;;;;;;331.50;186.15;;;;;;;2.96;78.27;95521.31;1822189;78;21088;-50
2020/12/19 04:13:38;;;;;;;342.65;186.85;;;;;;;2.93;78.22;95520.72;1809621;79;21055;-50
2020/12/19 04:16:06;;;;;;;331.52;178.80;;;;;;;2.90;78.34;95523.41;1822333;78;21083;-51
2020/12/19 04:18:35;;;;;;;320.37;177.25;;;;;;;2.92;78.41;95525.16;1822229;78;21111;-50
2020/12/19 04:21:08;;;;;;;309.00;172.68;;;;;;;2.95;78.40;95523.04;1809720;79;21489;-51
2020/12/19 04:23:36;;;;;;;319.55;177.45;;;;;;;2.96;78.47;95526.75;1822439;78;21092;-50
2020/12/19 04:26:04;;;;;;;320.17;177.68;;;;;;;3.01;78.64;95517.44;1809611;79;21135;-50
2020/12/19 04:28:32;;;;;;;299.80;163.07;;;;;;;3.10;78.61;95523.33;1822309;78;21572;-50
2020/12/19 04:31:01;;;;;;;318.02;170.50;;;;;;;3.16;78.25;95523.16;1822196;78;21154;-51
2020/12/19 04:33:29;;;;;;;305.18;163.62;;;;;;;3.13;78.13;95521.20;1822325;78;22259;-50
2020/12/19 04:35:58;;;;;;;309.27;171.85;;;;;;;3.12;78.04;95526.44;1821147;78;21064;-49
2020/12/19 04:38:26;;;;;;;316.10;173.87;;;;;;;3.08;78.08;95521.57;1796383;79;21058;-48
2020/12/19 04:40:58;;;;;;;298.13;165.30;;;;;;;3.07;78.45;95520.02;1811041;79;22159;-50
2020/12/19 04:43:27;;;;;;;274.40;155.80;;;;;;;3.12;78.37;95524.52;1770218;79;21094;-50
2020/12/19 04:45:55;;;;;;;282.02;161.45;;;;;;;3.09;78.06;95525.84;1786601;79;21485;-50
2020/12/19 04:48:24;;;;;;;293.30;159.87;;;;;;;2.99;78.21;95525.19;1796222;79;21113;-49
2020/12/19 04:50:52;;;;;;;287.95;157.37;;;;;;;3.00;78.34;95519.95;1811007;79;21135;-49
2020/12/19 04:53:21;;;;;;;273.05;156.85;;;;;;;3.02;78.10;95524.45;1796279;79;21165;-49
2020/12/19 04:55:50;;;;;;;283.10;163.55;;;;;;;2.98;78.16;95516.84;1811077;79;21067;-50
2020/12/19 04:58:19;;;;;;;283.87;160.35;;;;;;;2.99;78.60;95525.19;1796354;79;21377;-50
2020/12/19 05:00:47;;;;;;;279.00;159.87;;;;;;;3.03;78.39;95518.63;1810950;79;21103;-49
2020/12/19 05:03:16;;;;;;;281.43;155.35;;;;;;;3.05;78.31;95518.26;1796272;79;21054;-49
2020/12/19 05:05:45;;;;;;;293.85;159.20;;;;;;;3.05;78.21;95515.54;1810986;79;21150;-50
2020/12/19 05:08:13;;;;;;;308.87;162.77;;;;;;;3.07;78.18;95520.02;1796306;79;21101;-50
2020/12/19 05:10:44;;;;;;;303.70;161.97;;;;;;;3.14;78.29;95522.75;1810899;79;21370;-50
2020/12/19 05:13:12;;;;;;;309.18;167.37;;;;;;;3.16;77.96;95526.66;1796195;79;21134;-49
2020/12/19 05:15:41;;;;;;;313.60;168.15;;;;;;;3.15;77.84;95527.83;1810954;79;21155;-51
2020/12/19 05:18:09;;;;;;;262.17;151.45;;;;;;;3.14;78.09;95526.83;1796376;79;21486;-50
2020/12/19 05:20:38;;;;;;;252.15;145.05;;;;;;;3.15;77.78;95525.67;1795812;79;21046;-51
2020/12/19 05:23:08;;;;;;;264.40;146.57;;;;;;;3.03;77.74;95528.73;1786473;79;21396;-49
2020/12/19 05:25:41;;;;;;;274.67;154.03;;;;;;;3.00;78.04;95525.39;1796222;79;21090;-50
2020/12/19 05:28:09;;;;;;;257.85;150.57;;;;;;;3.02;78.05;95515.70;1811143;79;21040;-50
2020/12/19 05:30:37;;;;;;;270.37;150.97;;;;;;;3.02;77.87;95520.37;1796359;79;21447;-49
2020/12/19 05:33:05;;;;;;;261.07;147.25;;;;;;;2.97;78.10;95517.44;1810998;79;21124;-49
2020/12/19 05:35:35;;;;;;;277.05;150.75;;;;;;;2.98;78.25;95522.28;1797172;79;21364;-49
2020/12/19 05:38:05;;;;;;;269.68;149.42;;;;;;;3.00;78.18;95512.59;1822098;78;21094;-51
2020/12/19 05:40:34;;;;;;;269.90;150.10;;;;;;;3.04;77.98;95517.46;1822162;78;21139;-50
2020/12/19 05:43:02;;;;;;;243.15;143.45;;;;;;;3.05;77.87;95516.90;1809544;79;21107;-49
2020/12/19 05:45:30;;;;;;;262.42;152.07;;;;;;;3.02;77.87;95517.66;1822171;78;21048;-51
2020/12/19 05:48:00;;;;;;;267.13;151.85;;;;;;;2.93;77.94;95517.20;1822108;78;21207;-49
2020/12/19 05:50:28;;;;;;;254.65;147.22;;;;;;;2.88;78.13;95523.01;1822063;78;21985;-50
2020/12/19 05:52:57;;;;;;;250.57;145.35;;;;;;;2.83;78.13;95520.06;1822162;78;21067;-50
2020/12/19 05:55:25;;;;;;;260.90;142.28;;;;;;;2.80;78.25;95524.11;1809510;79;21124;-50
2020/12/19 05:57:54;;;;;;;268.70;149.53;;;;;;;2.79;78.27;95520.63;1822250;78;21528;-50
2020/12/19 06:00:22;;;;;;;281.73;155.97;;;;;;;2.80;78.58;95518.11;1809509;79;21361;-49
2020/12/19 06:02:51;;;;;;;240.55;132.85;;;;;;;2.81;78.54;95512.08;1822062;78;21150;-50
2020/12/19 06:05:19;;;;;;;294.80;164.72;;;;;;;2.82;78.52;95520.42;1822151;78;21071;-50
2020/12/19 06:07:48;;;;;;;314.65;169.43;;;;;;;2.73;78.53;95521.35;1822242;78;21491;-51
2020/12/19 06:10:18;;;;;;;304.98;166.35;;;;;;;2.72;78.91;95519.20;1822169;78;21067;-50
2020/12/19 06:13:09;;;;;;;327.85;179.72;;;;;;;2.78;78.92;95519.63;1809530;79;21377;-50
2020/12/19 06:16:10;;;;;;;292.50;160.07;;;;;;;2.86;78.94;95511.74;1822083;78;21072;-50
2020/12/19 06:18:50;;;;;;;310.63;164.82;;;;;;;2.94;78.68;95505.17;1822093;78;21055;-49
2020/12/19 06:21:19;;;;;;;309.10;167.03;;;;;;;2.88;78.40;95507.47;1822085;78;21492;-52
2020/12/19 06:23:48;;;;;;;304.82;166.18;;;;;;;2.86;78.66;95509.02;1822139;78;21064;-52
2020/12/19 06:26:16;;;;;;;301.85;163.90;;;;;;;2.91;78.68;95504.58;1822096;78;21194;-54
2020/12/19 06:28:46;;;;;;;299.05;165.28;;;;;;;3.01;78.52;95517.44;1809578;79;21162;-52
2020/12/19 06:31:21;;;;;;;305.57;172.17;;;;;;;3.04;78.12;95515.34;1822089;78;21155;-52
2020/12/19 06:33:53;;;;;;;316.82;174.70;;;;;;;2.99;78.19;95511.61;1809583;79;21084;-51
2020/12/19 06:36:27;;;;;;;326.35;181.18;;;;;;;3.00;78.38;95513.95;1821620;78;21071;-51
2020/12/19 06:38:59;;;;;;;312.72;171.98;;;;;;;3.05;78.33;95525.05;1796286;79;21198;-51
2020/12/19 06:41:43;;;;;;;311.68;168.93;;;;;;;3.11;78.13;95522.16;1796280;79;21074;-53
2020/12/19 06:44:27;;;;;;;296.93;165.90;;;;;;;3.15;77.87;95516.16;1810954;79;21140;-50
2020/12/19 06:46:56;;;;;;;281.38;156.70;;;;;;;3.15;78.05;95514.80;1796237;79;21062;-51
2020/12/19 06:49:27;;;;;;;283.98;161.10;;;;;;;3.16;77.81;95523.16;1811091;79;21612;-51
2020/12/19 06:52:13;;;;;;;303.20;173.00;;;;;;;3.13;77.92;95521.20;1796265;79;21253;-51
2020/12/19 06:54:47;;;;;;;295.80;161.10;;;;;;;3.13;77.83;95523.92;1810881;79;21595;-51
2020/12/19 06:57:30;;;;;;;311.95;175.78;;;;;;;3.14;77.90;95526.83;1796220;79;21119;-51
2020/12/19 07:00:21;;;;;;;341.50;188.50;;;;;;;3.15;77.81;95527.83;1811066;79;21068;-50
2020/12/19 07:03:00;;;;;;;312.60;181.28;;;;;;;3.13;77.86;95529.36;1796235;79;21054;-55
2020/12/19 07:05:31;;;;;;;281.82;167.93;;;;;;;3.15;78.09;95533.83;1811124;79;22269;-51
2020/12/19 07:08:23;;;;;;;206.82;120.37;;;;;;;3.18;78.10;95538.50;1796202;79;21098;-49
2020/12/19 07:10:51;;;;;;;256.20;146.77;;;;;;;3.13;77.92;95529.36;1826383;78;21891;-54
2020/12/19 07:13:20;;;;;;;350.57;195.38;;;;;;;3.07;78.26;95535.73;1810892;79;21076;-51
2020/12/19 07:15:51;;;;;;;304.77;185.25;;;;;;;3.14;78.18;95527.63;1796164;79;21479;-52
2020/12/19 07:21:10;;;;;;;299.85;178.50;;;;;;;3.22;78.13;95531.16;1851200;76;22655;-51
2020/12/19 07:23:39;;;;;;;288.73;173.13;;;;;;;3.19;78.24;95533.26;1823180;78;21057;-54
2020/12/19 07:26:09;;;;;;;279.13;169.05;;;;;;;3.22;78.25;95542.04;1823100;78;21267;-51
2020/12/19 07:28:38;;;;;;;284.50;167.53;;;;;;;3.24;78.06;95545.16;1823097;78;21514;-51
2020/12/19 07:31:06;;;;;;;335.95;194.60;;;;;;;3.23;78.14;95537.56;1823181;78;21132;-53
2020/12/19 07:33:34;;;;;;;347.93;208.40;;;;;;;3.28;78.02;95539.91;1823226;78;21550;-51
2020/12/19 07:36:03;;;;;;;348.87;213.15;;;;;;;3.31;77.88;95549.25;1823140;78;21101;-51
2020/12/19 07:38:32;;;;;;;350.60;213.97;;;;;;;3.33;77.88;95533.34;1823107;78;21201;-52
2020/12/19 07:41:01;;;;;;;372.60;231.13;;;;;;;3.31;77.78;95541.89;1807225;78;20962;-53
2020/12/19 07:43:30;;;;;;;366.40;221.35;;;;;;;3.25;77.77;95544.75;1790739;80;20950;-51
2020/12/19 07:45:58;;;;;;;376.20;225.35;;;;;;;3.15;77.98;95541.98;1790696;80;21084;-52
2020/12/19 07:48:27;;;;;;;345.40;215.92;;;;;;;3.14;78.20;95544.50;1790822;80;21481;-51
2020/12/19 07:50:55;;;;;;;345.17;216.35;;;;;;;3.22;78.28;95539.32;1790679;80;21199;-52
2020/12/19 07:53:24;;;;;;;340.20;205.47;;;;;;;3.36;78.12;95548.88;1790649;80;21151;-52
2020/12/19 07:55:52;;;;;;;360.65;220.70;;;;;;;3.51;77.94;95552.07;1790709;80;21176;-51
2020/12/19 07:58:21;;;;;;;347.55;210.53;;;;;;;3.56;77.76;95553.08;1790733;80;21089;-53
2020/12/19 08:00:49;;;;;;;302.93;174.50;;;;;;;3.54;77.55;95554.62;1790726;80;21069;-54
2020/12/19 08:03:18;;;;;;;351.80;204.72;;;;;;;3.48;77.50;95550.12;1790720;80;21200;-50
2020/12/19 08:05:56;;;;;;;316.63;196.37;;;;;;;3.47;77.56;95554.59;1790643;79;21164;-53
2020/12/19 08:08:25;;;;;;;301.95;189.00;;;;;;;3.50;77.65;95556.55;1790758;80;21120;-51
2020/12/19 08:11:03;;;;;;;351.70;210.88;;;;;;;3.52;77.51;95560.42;1790723;80;21140;-53
2020/12/19 08:13:31;;;;;;;350.62;218.37;;;;;;;3.56;77.80;95557.16;1790779;80;21065;-51
2020/12/19 08:15:59;;;;;;;318.93;201.90;;;;;;;3.64;77.44;95550.58;1790701;80;21382;-51
2020/12/19 08:18:28;;;;;;;343.52;211.68;;;;;;;3.64;77.26;95560.09;1790671;80;21109;-52
2020/12/19 08:20:57;;;;;;;312.75;195.22;;;;;;;3.66;77.18;95559.13;1795079;79;21073;-52
2020/12/19 08:23:25;;;;;;;291.08;184.90;;;;;;;3.73;77.07;95559.14;1796575;79;21136;-53
2020/12/19 08:25:54;;;;;;;236.10;146.98;;;;;;;3.77;76.85;95559.96;1796596;79;21153;-53
2020/12/19 08:28:22;;;;;;;233.97;147.02;;;;;;;3.85;76.87;95565.61;1796534;79;21311;-53
2020/12/19 08:30:52;;;;;;;245.75;149.87;;;;;;;3.90;76.64;95557.06;1794239;79;21160;-51
2020/12/19 08:33:21;;;;;;;203.27;127.85;;;;;;;3.95;76.35;95556.71;1796067;80;21057;-51
2020/12/19 08:35:49;;;;;;;192.40;118.25;;;;;;;4.00;76.33;95556.89;1795989;80;21069;-53
2020/12/19 08:38:23;;;;;;;198.97;118.35;;;;;;;4.00;76.23;95551.45;1795986;80;21509;-54
2020/12/19 08:40:53;;;;;;;224.88;134.80;;;;;;;3.97;76.14;95553.02;1796038;78;26446;-53
2020/12/19 08:43:34;;;;;;;205.55;129.38;;;;;;;3.98;76.13;95551.06;1796220;80;21096;-52
2020/12/19 08:46:09;;;;;;;180.87;117.53;;;;;;;4.05;76.26;95553.22;1796018;80;21096;-53
2020/12/19 08:48:38;;;;;;;180.07;112.25;;;;;;;4.14;76.13;95546.84;1796003;80;21081;-52
2020/12/19 08:51:14;;;;;;;203.15;124.95;;;;;;;4.25;76.01;95554.42;1796006;80;21155;-51
2020/12/19 08:53:42;;;;;;;168.00;103.58;;;;;;;4.32;75.86;95549.57;1795973;80;21156;-51
2020/12/19 08:56:25;;;;;;;159.10;100.20;;;;;;;4.45;75.51;95549.39;1795943;80;21104;-54
2020/12/19 08:58:53;;;;;;;147.95;90.07;;;;;;;4.53;75.31;95547.66;1795522;80;21117;-53
2020/12/19 09:01:22;;;;;;;92.95;57.95;;;;;;;4.66;74.91;95555.64;1797656;79;21159;-52
2020/12/19 09:03:52;;;;;;;101.95;65.90;;;;;;;4.74;74.40;95546.85;1798829;79;21068;-50
2020/12/19 09:06:21;;;;;;;119.42;75.28;;;;;;;4.75;74.39;95551.93;1796254;79;21525;-50
2020/12/19 09:08:49;;;;;;;129.85;82.50;;;;;;;4.79;74.28;95544.52;1796195;79;21501;-54
2020/12/19 09:11:28;;;;;;;110.60;69.05;;;;;;;4.81;74.27;95543.55;1796303;79;21489;-51
2020/12/19 09:14:11;;;;;;;94.80;57.50;;;;;;;4.87;74.17;95544.72;1796261;79;21088;-52
2020/12/19 09:16:51;;;;;;;93.10;54.48;;;;;;;4.91;73.93;95540.04;1797638;79;21540;-51
2020/12/19 09:19:20;;;;;;;89.52;57.03;;;;;;;4.87;73.73;95539.27;1801004;79;21432;-53
2020/12/19 09:21:57;;;;;;;74.77;48.48;;;;;;;4.82;73.79;95534.80;1793074;80;21949;-51
2020/12/19 09:24:26;;;;;;;65.22;43.10;;;;;;;4.82;73.77;95525.25;1793178;80;21560;-53
2020/12/19 09:26:55;;;;;;;56.40;38.20;;;;;;;4.80;73.63;95528.96;1793086;80;21148;-51
2020/12/19 09:29:24;;;;;;;55.80;38.92;;;;;;;4.70;73.55;95518.27;1795439;79;21564;-52
2020/12/19 09:31:53;;;;;;;74.70;49.00;;;;;;;4.61;73.71;95526.03;1795907;79;23003;-56
2020/12/19 09:34:22;;;;;;;79.82;51.08;;;;;;;4.55;73.93;95524.88;1793468;79;21170;-53
2020/12/19 09:36:52;;;;;;;66.97;46.20;;;;;;;4.55;74.10;95526.81;1779647;79;21668;-55
2020/12/19 09:39:22;;;;;;;109.03;63.10;;;;;;;4.54;74.07;95523.33;1773825;80;21155;-53
2020/12/19 09:41:50;;;;;;;103.70;64.65;;;;;;;4.50;74.19;95528.57;1775646;80;21163;-54
2020/12/19 09:44:20;;;;;;;94.77;64.37;;;;;;;4.48;74.48;95523.53;1773734;80;21154;-54
2020/12/19 09:46:51;;;;;;;105.58;69.35;;;;;;;4.55;74.53;95524.88;1779772;79;21116;-52
2020/12/19 09:49:19;;;;;;;107.90;70.42;;;;;;;4.61;74.59;95526.63;1776200;80;21143;-52
2020/12/19 09:51:48;;;;;;;101.97;68.47;;;;;;;4.74;74.62;95521.75;1786065;80;21071;-54
2020/12/19 09:54:16;;;;;;;108.12;67.50;;;;;;;4.89;74.18;95516.48;1784491;80;21790;-53
2020/12/19 09:56:46;;;;;;;106.95;65.35;;;;;;;4.99;73.85;95512.19;1780651;80;21365;-55
2020/12/19 09:59:14;;;;;;;191.22;98.15;;;;;;;5.00;73.66;95515.86;1775834;80;21171;-52
2020/12/19 10:01:43;;;;;;;105.25;63.40;;;;;;;5.09;73.76;95513.52;1776488;80;21976;-54
2020/12/19 10:04:12;;;;;;;99.30;63.38;;;;;;;5.24;73.52;95505.50;1784785;80;21222;-53
2020/12/19 10:06:41;;;;;;;101.02;62.73;;;;;;;5.40;73.13;95504.48;1763614;79;21154;-50
2020/12/19 10:09:09;;;;;;;102.22;63.58;;;;;;;5.53;72.59;95501.48;1760208;80;21997;-52
2020/12/19 10:11:37;;;;;;;93.60;58.08;;;;;;;5.60;72.42;95499.50;1775312;80;21096;-54
2020/12/19 10:14:06;;;;;;;96.80;63.28;;;;;;;5.71;72.03;95495.36;1778849;78;21199;-54
2020/12/19 10:16:35;;;;;;;88.80;58.60;;;;;;;5.67;71.94;95494.03;1779922;80;21199;-53
2020/12/19 10:19:03;;;;;;;92.30;59.65;;;;;;;5.71;72.00;95495.36;1780466;79;21194;-53
2020/12/19 10:21:32;;;;;;;83.72;57.60;;;;;;;5.70;71.71;95495.96;1780125;80;21594;-53
2020/12/19 10:24:01;;;;;;;74.50;49.95;;;;;;;5.68;71.53;95489.33;1778911;80;21401;-53
2020/12/19 10:26:29;;;;;;;79.45;52.65;;;;;;;5.66;71.47;95488.38;1781654;80;21548;-54
2020/12/19 10:28:58;;;;;;;88.92;59.60;;;;;;;5.67;71.44;95479.59;1778782;79;21139;-55
2020/12/19 10:31:27;;;;;;;87.92;58.40;;;;;;;5.72;71.47;95481.89;1787345;80;21227;-55
2020/12/19 10:33:56;;;;;;;94.15;63.75;;;;;;;5.82;71.27;95481.11;1777834;80;22013;-51
2020/12/19 10:36:24;;;;;;;89.60;59.50;;;;;;;5.82;71.18;95477.02;1785599;79;21167;-52
2020/12/19 10:38:53;;;;;;;102.80;71.92;;;;;;;5.83;71.00;95484.02;1788153;79;21109;-51
2020/12/19 10:41:21;;;;;;;100.87;68.65;;;;;;;5.74;71.20;95476.81;1783287;80;21163;-54
2020/12/19 10:43:51;;;;;;;117.77;73.22;;;;;;;5.77;71.29;95469.98;1784307;79;21130;-53
2020/12/19 10:46:24;;;;;;;108.15;68.62;;;;;;;5.81;71.14;95477.59;1779611;80;21424;-53
2020/12/19 10:48:52;;;;;;;100.57;63.17;;;;;;;5.74;71.51;95459.06;1777296;79;21067;-52
2020/12/19 10:51:29;;;;;;;126.60;80.32;;;;;;;5.74;71.51;95459.06;1804773;79;22173;-52
2020/12/19 10:53:57;;;;;;;113.35;75.90;;;;;;;5.72;71.59;95461.42;1805669;79;20992;-52
2020/12/19 10:56:26;;;;;;;107.22;67.40;;;;;;;5.87;71.81;95457.47;1806088;79;21163;-52
2020/12/19 10:58:54;;;;;;;93.60;61.60;;;;;;;6.07;71.23;95459.88;1805918;79;21644;-52
2020/12/19 11:01:22;;;;;;;99.17;61.40;;;;;;;6.08;70.91;95454.59;1793913;78;21169;-53
2020/12/19 11:03:52;;;;;;;85.65;56.77;;;;;;;6.08;70.81;95461.42;1788939;80;21021;-52
2020/12/19 11:06:26;;;;;;;82.47;55.63;;;;;;;6.15;70.60;95455.33;1788767;80;21184;-51
2020/12/19 11:08:54;;;;;;;83.33;56.58;;;;;;;6.22;70.46;95450.41;1788727;80;21639;-53
2020/12/19 11:11:26;;;;;;;95.95;59.00;;;;;;;6.32;70.34;95446.83;1788407;80;22114;-52
2020/12/19 11:13:54;;;;;;;84.87;53.38;;;;;;;6.44;70.10;95447.69;1788437;80;21133;-53
2020/12/19 11:16:27;;;;;;;85.92;57.93;;;;;;;6.52;69.98;95451.32;1788839;80;21152;-55
2020/12/19 11:18:56;;;;;;;84.07;54.80;;;;;;;6.63;69.74;95445.18;1790905;79;21655;-52
2020/12/19 11:21:24;;;;;;;79.30;51.48;;;;;;;6.72;69.25;95446.08;1804578;79;21588;-52
2020/12/19 11:23:53;;;;;;;84.15;52.83;;;;;;;6.75;69.10;95443.89;1799081;79;22337;-53
2020/12/19 11:26:23;;;;;;;89.47;53.63;;;;;;;6.80;69.12;95442.87;1791984;80;21151;-52